Time;durP1;ratioP1;P1;durP2;ratioP2;P2;SDS_P1;SDS_P2;PMS_P1;PMS_P2;Temp;Humidity;BMP_temperature;BMP_pressure;BME280_temperature;BME280_humidity;BME280_pressure;Samples;Min_cycle;Max_cycle;Signal;HPM_P1;HPM_P2
2022/05/27 00:02:17;;;;;;;7.80;2.50;;;17.00;71.50;;;;;;5040499;28;20280;-89
2022/05/27 00:04:43;;;;;;;4.63;2.20;;;17.10;71.80;;;;;;5039743;28;20646;-88
2022/05/27 00:07:09;;;;;;;6.37;2.60;;;17.10;71.50;;;;;;5055487;28;20207;-89
2022/05/27 00:09:35;;;;;;;5.00;2.33;;;17.10;71.40;;;;;;5054967;28;20612;-89
2022/05/27 00:12:00;;;;;;;8.30;2.00;;;17.10;71.50;;;;;;5037131;28;20533;-88
2022/05/27 00:14:26;;;;;;;7.10;3.30;;;17.10;71.80;;;;;;5036710;28;20431;-89
2022/05/27 00:16:52;;;;;;;4.93;2.50;;;17.10;71.70;;;;;;5036897;28;20177;-89
2022/05/27 00:19:18;;;;;;;6.17;3.00;;;17.20;71.50;;;;;;5045055;28;20439;-89
2022/05/27 00:21:43;;;;;;;6.33;2.40;;;17.20;71.20;;;;;;5061979;28;20174;-89
2022/05/27 00:24:09;;;;;;;7.37;3.23;;;17.20;71.30;;;;;;5037694;28;20177;-89
2022/05/27 00:26:35;;;;;;;6.50;2.50;;;17.10;71.70;;;;;;5037900;28;20181;-89
2022/05/27 00:29:01;;;;;;;11.63;2.80;;;17.10;72.00;;;;;;5041179;28;20201;-88
2022/05/27 00:31:26;;;;;;;14.85;2.63;;;17.10;72.00;;;;;;5040607;28;20261;-89
2022/05/27 00:33:52;;;;;;;10.90;2.93;;;17.00;73.30;;;;;;5039851;28;20181;-89
2022/05/27 00:36:18;;;;;;;7.97;2.83;;;17.00;73.10;;;;;;5040977;28;20169;-89
2022/05/27 00:38:44;;;;;;;6.87;3.23;;;17.00;73.30;;;;;;5040687;28;20197;-89
2022/05/27 00:41:11;;;;;;;6.45;2.60;;;17.00;73.60;;;;;;5044485;28;20181;-88
2022/05/27 00:43:44;;;;;;;14.07;3.65;;;17.00;73.40;;;;;;5059360;28;20185;-89
2022/05/27 00:46:22;;;;;;;11.35;3.55;;;17.10;73.20;;;;;;5081194;28;20188;-88
2022/05/27 00:48:51;;;;;;;9.38;3.10;;;17.00;73.10;;;;;;5061430;28;20292;-88
2022/05/27 00:51:24;;;;;;;8.32;3.28;;;17.10;73.00;;;;;;5043721;28;20232;-89
2022/05/27 00:53:59;;;;;;;10.55;3.40;;;17.00;73.00;;;;;;5065428;28;20176;-89
2022/05/27 00:56:30;;;;;;;6.25;2.80;;;17.00;73.10;;;;;;5042192;28;20239;-89
2022/05/27 00:59:03;;;;;;;8.40;3.25;;;17.10;73.30;;;;;;5068567;28;20203;-89
2022/05/27 01:01:29;;;;;;;7.85;3.22;;;17.00;73.00;;;;;;5045257;28;20235;-89
2022/05/27 01:03:57;;;;;;;11.40;3.53;;;17.10;73.00;;;;;;5039993;28;20226;-89
2022/05/27 01:06:23;;;;;;;9.23;5.00;;;17.00;73.10;;;;;;5058432;28;20534;-89
2022/05/27 01:08:49;;;;;;;4.72;2.90;;;17.00;73.30;;;;;;5044839;28;20204;-89
2022/05/27 01:11:34;;;;;;;6.45;2.85;;;17.00;73.30;;;;;;5058341;28;20169;-89
2022/05/27 01:14:17;;;;;;;13.77;3.15;;;16.90;73.30;;;;;;5052060;28;20262;-88
2022/05/27 01:16:49;;;;;;;5.72;2.88;;;16.90;73.50;;;;;;5077959;28;20162;-89
2022/05/27 01:22:46;;;;;;;12.85;3.85;;;17.00;73.30;;;;;;5077678;28;20176;-89
2022/05/27 01:25:15;;;;;;;10.73;3.78;;;16.90;73.50;;;;;;5071687;28;20150;-89
2022/05/27 01:28:07;;;;;;;14.98;3.40;;;16.90;73.80;;;;;;5045904;28;20201;-89
2022/05/27 01:31:00;;;;;;;13.70;3.70;;;16.90;74.00;;;;;;5062750;28;20532;-88
2022/05/27 01:33:44;;;;;;;9.55;3.60;;;16.90;73.90;;;;;;5051295;28;20189;-89
2022/05/27 01:36:27;;;;;;;8.75;3.35;;;16.90;73.80;;;;;;5077574;28;20181;-89
2022/05/27 01:39:10;;;;;;;14.27;3.72;;;16.90;74.00;;;;;;5038510;28;20255;-89
2022/05/27 01:42:00;;;;;;;12.82;4.30;;;16.90;74.20;;;;;;5039140;28;20200;-89
2022/05/27 01:44:48;;;;;;;9.65;3.85;;;16.90;74.30;;;;;;5039062;28;20211;-89
2022/05/27 01:47:22;;;;;;;12.35;4.00;;;16.90;74.20;;;;;;5056859;28;20176;-89
2022/05/27 01:49:55;;;;;;;12.70;4.57;;;16.90;74.10;;;;;;5040410;28;20223;-89
2022/05/27 01:52:40;;;;;;;8.27;3.90;;;16.90;74.20;;;;;;5038817;28;20264;-88
2022/05/27 01:55:24;;;;;;;13.35;4.50;;;16.90;74.30;;;;;;5057049;28;20599;-89
2022/05/27 01:58:02;;;;;;;5.45;3.20;;;16.90;74.50;;;;;;5056527;28;20220;-89
2022/05/27 02:00:28;;;;;;;10.52;4.05;;;16.90;74.70;;;;;;5038464;28;20211;-89
2022/05/27 02:03:12;;;;;;;11.85;4.07;;;16.90;74.50;;;;;;5038664;28;20173;-89
2022/05/27 02:05:50;;;;;;;11.30;4.90;;;16.90;74.60;;;;;;5038721;28;20169;-89
2022/05/27 02:08:27;;;;;;;13.82;5.32;;;16.90;74.50;;;;;;5038392;28;20231;-89
2022/05/27 02:11:08;;;;;;;13.98;5.30;;;16.90;74.60;;;;;;5038914;28;20161;-89
2022/05/27 02:13:43;;;;;;;14.02;4.53;;;16.90;74.70;;;;;;5056294;28;20168;-89
2022/05/27 02:16:13;;;;;;;12.00;4.95;;;16.90;74.70;;;;;;5038388;28;20177;-89
2022/05/27 02:18:54;;;;;;;24.58;6.05;;;16.80;74.70;;;;;;5038637;28;20250;-89
2022/05/27 02:21:47;;;;;;;9.38;4.25;;;16.80;74.70;;;;;;5056367;28;20166;-89
2022/05/27 02:24:27;;;;;;;8.95;4.40;;;16.80;74.90;;;;;;5038513;28;20687;-89
2022/05/27 02:27:02;;;;;;;7.65;4.20;;;16.90;74.90;;;;;;5037904;28;20199;-88
2022/05/27 02:29:30;;;;;;;10.43;5.05;;;16.90;75.00;;;;;;5037960;28;20708;-89
2022/05/27 02:32:05;;;;;;;9.60;6.38;;;16.90;74.50;;;;;;5037943;28;20197;-89
2022/05/27 02:37:43;;;;;;;14.48;5.13;;;16.90;74.90;;;;;;5056763;28;20251;-89
2022/05/27 02:40:21;;;;;;;13.10;6.40;;;16.80;75.10;;;;;;5056528;28;20177;-89
2022/05/27 02:43:30;;;;;;;17.75;5.90;;;16.80;75.30;;;;;;5056547;28;20184;-89
2022/05/27 02:46:14;;;;;;;17.08;6.15;;;16.80;75.70;;;;;;5011954;28;20192;-89
2022/05/27 02:48:55;;;;;;;18.13;7.30;;;16.80;76.20;;;;;;5052158;28;20361;-88
2022/05/27 02:51:43;;;;;;;14.70;6.97;;;16.70;76.90;;;;;;5062660;28;20244;-88
2022/05/27 02:54:22;;;;;;;15.45;7.75;;;16.80;78.20;;;;;;5049449;28;20165;-89
2022/05/27 02:57:18;;;;;;;16.65;7.57;;;16.70;79.60;;;;;;5051638;28;20189;-89
2022/05/27 02:59:45;;;;;;;18.63;8.38;;;16.60;80.50;;;;;;5041708;28;20161;-88
2022/05/27 03:02:13;;;;;;;24.20;9.20;;;16.50;81.40;;;;;;5039642;28;20183;-89
2022/05/27 03:04:51;;;;;;;17.08;9.30;;;16.50;81.90;;;;;;5037420;28;20227;-89
2022/05/27 03:07:56;;;;;;;21.48;9.88;;;16.50;82.90;;;;;;5038631;28;20197;-89
2022/05/27 03:10:44;;;;;;;15.38;8.95;;;16.40;83.20;;;;;;5029056;28;20197;-89
2022/05/27 03:13:16;;;;;;;19.67;9.85;;;16.40;83.80;;;;;;5058186;28;20177;-89
2022/05/27 03:15:50;;;;;;;18.73;10.05;;;16.30;84.30;;;;;;5065302;28;20201;-88
2022/05/27 03:18:37;;;;;;;21.17;10.82;;;16.30;84.90;;;;;;5068362;28;20230;-89
2022/05/27 03:21:22;;;;;;;26.13;12.15;;;16.20;85.10;;;;;;5058000;28;20244;-88
2022/05/27 03:23:56;;;;;;;25.40;12.40;;;16.10;85.80;;;;;;5060599;28;20177;-88
2022/05/27 03:26:31;;;;;;;24.95;12.05;;;16.10;86.70;;;;;;5078690;28;20200;-88
2022/05/27 03:29:10;;;;;;;20.63;10.18;;;16.10;87.40;;;;;;5038999;28;20235;-89
2022/05/27 03:32:03;;;;;;;34.00;13.27;;;16.00;87.90;;;;;;5054694;28;20645;-88
2022/05/27 03:34:40;;;;;;;17.95;11.43;;;16.00;88.00;;;;;;5036651;28;20597;-89
2022/05/27 03:37:13;;;;;;;20.35;11.30;;;16.00;88.60;;;;;;5054114;28;20161;-89
2022/05/27 03:40:12;;;;;;;19.92;9.90;;;16.00;88.90;;;;;;5054599;28;20170;-89
2022/05/27 03:42:40;;;;;;;23.65;11.50;;;16.00;88.70;;;;;;5036540;28;20181;-89
2022/05/27 03:45:10;;;;;;;23.75;11.13;;;16.00;88.40;;;;;;5036543;28;20227;-89
2022/05/27 03:47:37;;;;;;;27.90;12.02;;;15.90;88.60;;;;;;5054041;28;20204;-89
2022/05/27 03:50:05;;;;;;;24.38;12.48;;;16.00;88.90;;;;;;5036460;28;20623;-89
2022/05/27 03:52:40;;;;;;;25.05;14.30;;;15.90;89.00;;;;;;5037165;28;20169;-89
2022/05/27 03:55:08;;;;;;;22.42;14.43;;;15.90;89.50;;;;;;5037209;28;20220;-89
2022/05/27 03:57:34;;;;;;;32.38;16.60;;;15.90;89.90;;;;;;5041199;28;20193;-89
2022/05/27 03:59:59;;;;;;;27.43;16.13;;;16.00;90.20;;;;;;5041077;28;20256;-89
2022/05/27 04:02:25;;;;;;;25.40;15.80;;;15.90;90.40;;;;;;5069267;28;20206;-89
2022/05/27 04:04:51;;;;;;;17.87;12.40;;;15.80;90.40;;;;;;5043919;28;20185;-89
2022/05/27 04:07:16;;;;;;;30.83;15.20;;;15.80;90.80;;;;;;5041689;28;20212;-89
2022/05/27 04:09:42;;;;;;;26.70;16.57;;;15.80;91.10;;;;;;5048492;28;20228;-88
2022/05/27 04:12:09;;;;;;;30.40;17.92;;;15.80;91.50;;;;;;5049623;28;20292;-89
2022/05/27 04:14:37;;;;;;;36.60;18.92;;;15.80;91.60;;;;;;5061417;28;20184;-88
2022/05/27 04:17:48;;;;;;;23.00;15.43;;;15.80;91.70;;;;;;5041887;28;20172;-88
2022/05/27 04:19:49;;;;;;;30.60;19.02;;;15.80;91.90;;;;;;5050859;28;20263;-89
2022/05/27 04:22:15;;;;;;;38.73;19.67;;;15.80;92.20;;;;;;5060361;28;20204;-89
2022/05/27 04:24:40;;;;;;;25.20;18.30;;;15.80;92.30;;;;;;5042282;28;20847;-89
2022/05/27 04:27:08;;;;;;;26.53;17.73;;;15.80;92.40;;;;;;5042458;28;20633;-88
2022/05/27 04:29:41;;;;;;;31.95;18.00;;;15.80;92.60;;;;;;5041747;28;20275;-89
2022/05/27 04:32:08;;;;;;;25.75;15.93;;;15.80;92.80;;;;;;5040301;28;20177;-89
2022/05/27 04:34:33;;;;;;;32.40;16.48;;;15.80;92.60;;;;;;5040077;28;20177;-89
2022/05/27 04:36:59;;;;;;;40.73;16.60;;;15.80;92.60;;;;;;5039878;28;20223;-89
2022/05/27 04:39:25;;;;;;;23.05;14.40;;;15.80;92.70;;;;;;5039611;28;20188;-89
2022/05/27 04:41:51;;;;;;;32.23;14.97;;;15.80;92.50;;;;;;5058179;28;20173;-89
2022/05/27 04:44:17;;;;;;;26.50;15.57;;;15.80;92.50;;;;;;5039910;28;20427;-89
2022/05/27 04:46:45;;;;;;;23.97;14.27;;;15.80;92.40;;;;;;5057547;28;20181;-88
2022/05/27 04:49:50;;;;;;;22.80;13.38;;;15.80;92.30;;;;;;5039042;28;20221;-88
2022/05/27 04:51:57;;;;;;;29.95;14.55;;;15.80;92.40;;;;;;5057313;28;20189;-89
2022/05/27 04:54:23;;;;;;;23.50;15.03;;;15.80;92.20;;;;;;5045089;28;20170;-89
2022/05/27 04:56:49;;;;;;;25.97;13.97;;;15.80;92.10;;;;;;5041912;28;20450;-89
2022/05/27 04:59:15;;;;;;;30.63;14.77;;;15.80;92.00;;;;;;5059263;28;20446;-89
2022/05/27 05:01:41;;;;;;;21.60;13.43;;;15.80;92.00;;;;;;5040139;28;20867;-89
2022/05/27 05:04:06;;;;;;;25.40;13.87;;;15.80;92.00;;;;;;5055978;28;20207;-89
2022/05/27 05:06:32;;;;;;;25.87;14.53;;;15.90;92.20;;;;;;5051007;28;20906;-89
2022/05/27 05:09:01;;;;;;;29.87;13.13;;;15.90;92.30;;;;;;5042666;28;20673;-89
2022/05/27 05:11:27;;;;;;;21.17;14.05;;;15.90;92.00;;;;;;5051868;28;20188;-89
2022/05/27 05:13:52;;;;;;;17.70;13.17;;;15.90;91.70;;;;;;5060609;28;20173;-89
2022/05/27 05:16:18;;;;;;;25.10;12.90;;;15.80;91.60;;;;;;5058906;28;20205;-89
2022/05/27 05:18:44;;;;;;;23.97;12.53;;;15.80;91.70;;;;;;5061867;28;20177;-89
2022/05/27 05:21:10;;;;;;;19.40;12.37;;;15.80;91.80;;;;;;5040880;28;20477;-89
2022/05/27 05:23:35;;;;;;;24.57;13.00;;;15.90;92.10;;;;;;5039786;28;20419;-89
2022/05/27 05:26:01;;;;;;;18.93;11.93;;;15.90;92.10;;;;;;5058158;28;20189;-89
2022/05/27 05:28:27;;;;;;;17.60;11.13;;;16.00;92.00;;;;;;5039498;28;20799;-89
2022/05/27 05:30:53;;;;;;;17.37;11.83;;;16.00;91.80;;;;;;5040021;28;20271;-89
2022/05/27 05:33:19;;;;;;;27.43;11.90;;;16.00;91.60;;;;;;5058524;28;20457;-89
2022/05/27 05:35:46;;;;;;;15.70;10.40;;;16.00;91.50;;;;;;5057566;28;20169;-89
2022/05/27 05:38:12;;;;;;;23.85;12.07;;;16.10;91.30;;;;;;5058056;28;20976;-89
2022/05/27 05:40:39;;;;;;;23.00;12.40;;;16.10;91.10;;;;;;5042119;28;20219;-89
2022/05/27 05:43:06;;;;;;;26.55;11.73;;;16.20;91.10;;;;;;5046381;28;20178;-89
2022/05/27 05:45:31;;;;;;;22.80;10.55;;;16.20;90.80;;;;;;5050656;28;20216;-89
2022/05/27 05:47:57;;;;;;;22.17;10.80;;;16.20;90.70;;;;;;5052707;28;20201;-89
2022/05/27 05:50:23;;;;;;;21.83;11.20;;;16.40;90.40;;;;;;5054815;28;20312;-89
2022/05/27 05:52:49;;;;;;;19.08;10.68;;;16.40;89.80;;;;;;5075986;28;20169;-89
2022/05/27 05:55:22;;;;;;;25.47;9.97;;;16.40;89.70;;;;;;5062030;28;20188;-88
2022/05/27 05:57:49;;;;;;;15.45;9.00;;;16.40;89.50;;;;;;5062178;28;20220;-89
2022/05/27 06:00:19;;;;;;;13.20;7.43;;;16.40;89.10;;;;;;5060438;28;20185;-89
2022/05/27 06:02:45;;;;;;;15.13;8.43;;;16.50;89.00;;;;;;5048386;28;20170;-89
2022/05/27 06:05:11;;;;;;;14.73;8.70;;;16.50;88.70;;;;;;5039705;28;20526;-89
2022/05/27 06:07:37;;;;;;;15.63;8.07;;;16.50;88.40;;;;;;5056187;28;20589;-88
2022/05/27 06:10:05;;;;;;;16.77;8.60;;;16.60;88.10;;;;;;5038771;28;20201;-89
2022/05/27 06:12:34;;;;;;;14.65;6.70;;;16.70;87.80;;;;;;5056678;28;20177;-89
2022/05/27 06:15:24;;;;;;;15.38;6.82;;;16.70;87.30;;;;;;5038602;28;20550;-87
2022/05/27 06:17:50;;;;;;;18.75;7.78;;;16.80;86.90;;;;;;5038389;28;20276;-88
2022/05/27 06:20:16;;;;;;;12.83;5.87;;;16.80;86.70;;;;;;5038249;28;20208;-89
2022/05/27 06:22:42;;;;;;;11.30;6.07;;;16.90;86.70;;;;;;5039343;28;20420;-89
2022/05/27 06:25:08;;;;;;;9.70;6.13;;;16.90;86.30;;;;;;5037329;28;20551;-89
2022/05/27 06:27:34;;;;;;;10.67;4.90;;;16.90;85.40;;;;;;5055657;28;20204;-88
2022/05/27 06:35:28;;;;;;;17.17;6.22;;;17.10;83.70;;;;;;5057391;28;20655;-89
2022/05/27 06:37:54;;;;;;;8.70;5.40;;;17.10;83.90;;;;;;5058728;28;20210;-89
2022/05/27 06:40:20;;;;;;;12.63;5.10;;;17.10;84.30;;;;;;5062794;28;20177;-89
2022/05/27 06:42:46;;;;;;;7.90;4.73;;;17.20;84.00;;;;;;5072482;28;20416;-89
2022/05/27 06:45:13;;;;;;;10.53;4.80;;;17.20;83.60;;;;;;5072844;28;20203;-89
2022/05/27 06:47:39;;;;;;;8.43;5.57;;;17.20;83.80;;;;;;5069771;28;20200;-89
2022/05/27 06:50:08;;;;;;;11.88;6.30;;;17.30;83.60;;;;;;5041403;28;20241;-89
2022/05/27 06:52:34;;;;;;;6.70;4.80;;;17.50;83.20;;;;;;5047956;28;20173;-89
2022/05/27 06:54:59;;;;;;;7.13;4.80;;;17.40;82.00;;;;;;5053048;28;20181;-89
2022/05/27 06:57:25;;;;;;;14.97;5.60;;;17.50;81.80;;;;;;5040848;28;20550;-89
2022/05/27 06:59:51;;;;;;;9.10;5.10;;;17.80;82.00;;;;;;5039046;28;20514;-89
2022/05/27 07:02:17;;;;;;;10.47;5.57;;;17.80;80.10;;;;;;5055233;28;20192;-89
2022/05/27 07:04:42;;;;;;;21.90;5.80;;;17.90;80.00;;;;;;5038538;28;20268;-89
2022/05/27 07:07:09;;;;;;;8.20;5.80;;;17.90;79.10;;;;;;5054467;28;20173;-89
2022/05/27 07:09:35;;;;;;;10.80;5.90;;;17.90;77.60;;;;;;5049766;28;20570;-89
2022/05/27 07:12:07;;;;;;;9.30;4.87;;;17.80;77.20;;;;;;5040824;28;20188;-88
2022/05/27 07:14:33;;;;;;;7.95;4.55;;;17.70;76.80;;;;;;5041219;28;20427;-85
2022/05/27 07:16:59;;;;;;;10.25;4.60;;;17.70;76.80;;;;;;5042465;28;20181;-86
2022/05/27 07:19:25;;;;;;;7.38;5.25;;;17.80;76.70;;;;;;5059752;28;20276;-86
2022/05/27 07:21:55;;;;;;;6.07;4.17;;;17.80;76.90;;;;;;5032625;28;20256;-86
2022/05/27 07:24:22;;;;;;;7.32;5.22;;;17.70;74.90;;;;;;5042917;28;20439;-87
2022/05/27 07:26:48;;;;;;;7.03;4.53;;;17.90;74.80;;;;;;5038871;28;20188;-86
2022/05/27 07:29:14;;;;;;;7.33;4.30;;;18.10;73.80;;;;;;5036490;28;20589;-86
2022/05/27 07:31:42;;;;;;;7.13;3.97;;;18.10;72.40;;;;;;5036597;28;20180;-86
2022/05/27 07:34:08;;;;;;;4.82;3.70;;;18.10;71.60;;;;;;5056366;28;20184;-86
2022/05/27 07:36:34;;;;;;;5.55;4.43;;;18.10;71.70;;;;;;5054049;28;20170;-88
2022/05/27 07:39:00;;;;;;;4.38;3.70;;;18.10;72.10;;;;;;5042060;28;20201;-87
2022/05/27 07:41:30;;;;;;;7.23;3.50;;;18.00;70.30;;;;;;5060548;28;20275;-89
2022/05/27 07:43:59;;;;;;;6.30;3.55;;;17.90;69.40;;;;;;5030379;28;20427;-90
2022/05/27 07:46:25;;;;;;;5.68;3.13;;;17.90;69.50;;;;;;5065830;28;20662;-90
2022/05/27 07:48:52;;;;;;;6.47;3.15;;;17.90;69.80;;;;;;5040089;28;20304;-89
2022/05/27 07:51:18;;;;;;;6.18;3.20;;;18.00;70.10;;;;;;5056723;28;20188;-89
2022/05/27 07:53:43;;;;;;;6.43;2.92;;;17.80;65.70;;;;;;5056569;28;20637;-89
2022/05/27 07:56:11;;;;;;;5.77;3.10;;;17.70;66.30;;;;;;5039064;28;20323;-88
2022/05/27 07:58:36;;;;;;;7.05;3.80;;;17.80;66.80;;;;;;5038643;28;20255;-87
2022/05/27 08:01:03;;;;;;;9.10;4.33;;;17.90;67.70;;;;;;5036660;28;20185;-86
2022/05/27 08:03:28;;;;;;;6.68;3.70;;;18.10;68.80;;;;;;5036193;28;20187;-86
2022/05/27 08:05:59;;;;;;;7.30;3.00;;;18.00;69.50;;;;;;5036844;28;20188;-86
2022/05/27 08:08:24;;;;;;;7.57;2.63;;;18.00;68.30;;;;;;5035822;28;20205;-86
2022/05/27 08:10:51;;;;;;;6.27;2.97;;;17.90;64.70;;;;;;5054865;28;20856;-86
2022/05/27 08:13:16;;;;;;;8.23;2.85;;;17.80;64.60;;;;;;5054610;28;20228;-86
2022/05/27 08:15:43;;;;;;;9.23;2.80;;;17.90;64.70;;;;;;5037377;28;20232;-86
2022/05/27 08:18:09;;;;;;;7.25;3.00;;;18.00;63.30;;;;;;5037982;28;20616;-86
2022/05/27 08:20:37;;;;;;;6.10;3.13;;;18.00;63.60;;;;;;5058327;28;20197;-86
2022/05/27 08:23:03;;;;;;;13.52;4.13;;;18.00;64.90;;;;;;5042154;28;20178;-86
2022/05/27 08:25:30;;;;;;;15.85;3.72;;;18.10;65.30;;;;;;5044340;28;20173;-86
2022/05/27 08:27:56;;;;;;;6.80;2.70;;;18.10;65.60;;;;;;5044224;28;20256;-86
2022/05/27 08:30:31;;;;;;;6.90;3.08;;;18.30;64.50;;;;;;5059448;28;20209;-86
2022/05/27 08:32:57;;;;;;;9.88;2.88;;;18.30;62.30;;;;;;5049367;28;20169;-86
2022/05/27 08:38:31;;;;;;;6.72;4.30;;;18.70;62.20;;;;;;5071653;28;20211;-89
2022/05/27 08:41:06;;;;;;;4.35;2.80;;;18.80;63.00;;;;;;5047348;28;20192;-88
2022/05/27 08:43:58;;;;;;;9.98;3.97;;;18.80;62.40;;;;;;5041451;28;20196;-88
2022/05/27 08:46:47;;;;;;;6.28;4.47;;;18.70;62.70;;;;;;5053606;28;20186;-90
2022/05/27 08:49:26;;;;;;;9.95;4.15;;;18.70;62.00;;;;;;5049756;28;20209;-88
2022/05/27 08:52:19;;;;;;;6.70;3.35;;;18.70;62.60;;;;;;5028010;28;20308;-87
2022/05/27 08:54:52;;;;;;;11.90;3.92;;;18.50;62.00;;;;;;5042661;28;20177;-88
2022/05/27 09:00:17;;;;;;;7.32;2.92;;;18.10;60.30;;;;;;5072027;28;20176;-88
2022/05/27 09:02:50;;;;;;;10.30;3.30;;;18.00;59.70;;;;;;5061609;28;20195;-88
2022/05/27 09:05:36;;;;;;;5.20;3.10;;;17.90;59.90;;;;;;5043059;28;20178;-88
2022/05/27 09:08:25;;;;;;;10.35;2.75;;;18.00;58.90;;;;;;5060663;28;20711;-87
2022/05/27 09:11:18;;;;;;;5.93;2.85;;;18.10;56.90;;;;;;5042839;28;20197;-88
2022/05/27 09:13:48;;;;;;;4.80;3.05;;;18.10;57.30;;;;;;5053336;28;20188;-88
2022/05/27 09:16:23;;;;;;;16.52;4.05;;;18.40;57.80;;;;;;5052790;28;20173;-88
2022/05/27 09:19:00;;;;;;;10.02;4.00;;;18.50;57.30;;;;;;5045579;28;20196;-88
2022/05/27 09:21:32;;;;;;;7.85;3.92;;;18.60;57.70;;;;;;5044574;28;20169;-88
2022/05/27 09:24:06;;;;;;;5.75;3.15;;;18.80;57.00;;;;;;5046891;28;20173;-89
2022/05/27 09:26:48;;;;;;;5.35;3.30;;;18.60;56.20;;;;;;5072477;28;20180;-92
2022/05/27 09:29:32;;;;;;;9.40;4.30;;;18.50;56.80;;;;;;5056981;28;20209;-90
2022/05/27 09:32:09;;;;;;;7.00;2.95;;;18.50;56.90;;;;;;5075788;28;20161;-88
2022/05/27 09:34:41;;;;;;;13.20;3.38;;;18.60;57.00;;;;;;5048709;28;20785;-89
2022/05/27 09:37:10;;;;;;;8.82;3.15;;;18.80;56.30;;;;;;5046857;28;20181;-90
2022/05/27 09:39:36;;;;;;;9.82;3.08;;;18.80;56.20;;;;;;5048153;28;20181;-89
2022/05/27 09:42:19;;;;;;;7.28;3.20;;;18.60;53.40;;;;;;5050909;28;20267;-90
2022/05/27 09:44:48;;;;;;;8.73;3.55;;;18.40;53.90;;;;;;5047066;28;20184;-90
2022/05/27 09:47:15;;;;;;;18.33;4.18;;;18.50;54.60;;;;;;5049811;28;20161;-89
2022/05/27 09:49:45;;;;;;;8.23;3.70;;;18.60;55.00;;;;;;5047044;28;20289;-90
2022/05/27 09:52:11;;;;;;;8.40;3.65;;;18.70;55.90;;;;;;5044592;28;20180;-87
2022/05/27 09:54:55;;;;;;;7.72;3.22;;;18.70;55.00;;;;;;5042123;28;20551;-86
2022/05/27 09:57:26;;;;;;;10.52;3.45;;;18.70;54.30;;;;;;5041247;28;20571;-86
2022/05/27 09:59:56;;;;;;;9.63;4.20;;;18.60;53.80;;;;;;5058321;28;20548;-86
2022/05/27 10:02:30;;;;;;;7.30;3.80;;;18.70;54.60;;;;;;5041458;28;20231;-86
2022/05/27 10:04:58;;;;;;;8.55;3.47;;;18.80;54.10;;;;;;5042399;28;20181;-85
2022/05/27 10:07:59;;;;;;;11.55;2.72;;;18.60;53.40;;;;;;5040917;28;20206;-86
2022/05/27 10:10:36;;;;;;;9.60;3.05;;;18.60;53.10;;;;;;5020336;28;20644;-85
2022/05/27 10:13:30;;;;;;;5.38;3.05;;;18.60;53.80;;;;;;5042368;28;20222;-86
2022/05/27 10:16:08;;;;;;;9.48;4.10;;;18.50;53.30;;;;;;5059386;28;20238;-85
2022/05/27 10:18:34;;;;;;;10.13;3.33;;;18.50;53.10;;;;;;5064264;28;20203;-86
2022/05/27 10:21:03;;;;;;;14.73;3.87;;;18.50;53.90;;;;;;5045463;28;20185;-86
2022/05/27 10:23:38;;;;;;;9.20;3.50;;;18.60;52.70;;;;;;5059337;28;20177;-86
2022/05/27 10:26:24;;;;;;;8.95;3.30;;;18.50;53.20;;;;;;5060285;28;20173;-85
2022/05/27 10:28:56;;;;;;;5.68;3.25;;;18.60;53.70;;;;;;5043966;28;20209;-85
2022/05/27 10:31:23;;;;;;;11.25;3.78;;;18.60;53.40;;;;;;5045009;28;20289;-86
2022/05/27 10:33:49;;;;;;;8.18;3.35;;;18.70;53.00;;;;;;5044262;28;20173;-86
2022/05/27 10:36:35;;;;;;;8.67;3.70;;;18.70;51.90;;;;;;5044379;28;20185;-87
2022/05/27 10:39:27;;;;;;;4.80;3.42;;;18.80;53.50;;;;;;5052893;28;20201;-87
2022/05/27 10:41:56;;;;;;;10.88;3.90;;;18.70;53.80;;;;;;5059716;28;20169;-86
2022/05/27 10:44:41;;;;;;;7.93;3.45;;;18.60;53.70;;;;;;5059754;28;20177;-88
2022/05/27 10:47:45;;;;;;;13.80;6.00;;;18.70;53.30;;;;;;5058121;28;20177;-87
2022/05/27 10:50:22;;;;;;;7.10;3.72;;;18.70;52.60;;;;;;5061852;28;20216;-87
2022/05/27 10:53:16;;;;;;;15.93;4.43;;;18.60;52.80;;;;;;5067898;28;20640;-86
2022/05/27 10:56:00;;;;;;;8.52;4.05;;;18.50;52.20;;;;;;5067188;28;20236;-87
2022/05/27 11:02:07;;;;;;;12.60;4.28;;;18.40;53.00;;;;;;5057595;28;20172;-87
2022/05/27 11:05:03;;;;;;;11.07;4.05;;;18.50;52.80;;;;;;5057432;28;20699;-87
2022/05/27 11:07:44;;;;;;;13.75;3.85;;;18.60;53.20;;;;;;5056065;28;20218;-87
2022/05/27 11:10:32;;;;;;;8.48;3.70;;;18.40;50.90;;;;;;5064829;28;20204;-87
2022/05/27 11:16:07;;;;;;;18.95;3.70;;;18.40;52.60;;;;;;5068094;28;20226;-87
2022/05/27 11:19:16;;;;;;;9.85;3.50;;;18.60;56.20;;;;;;5056032;28;20201;-87
2022/05/27 11:21:47;;;;;;;7.38;3.67;;;18.70;52.30;;;;;;5058141;28;20188;-86
2022/05/27 11:24:41;;;;;;;12.63;3.72;;;18.50;51.50;;;;;;5038995;28;20590;-87
2022/05/27 11:27:28;;;;;;;8.90;3.50;;;18.40;51.10;;;;;;5056457;28;20169;-86
2022/05/27 11:30:02;;;;;;;4.88;2.70;;;18.60;52.60;;;;;;5056817;28;20197;-86
2022/05/27 11:32:49;;;;;;;8.90;3.65;;;18.80;52.60;;;;;;5042098;28;20180;-86
2022/05/27 11:35:26;;;;;;;7.80;3.13;;;19.00;52.50;;;;;;5066109;28;20199;-86
2022/05/27 11:37:57;;;;;;;11.98;3.08;;;19.20;50.50;;;;;;5058732;28;20189;-86
2022/05/27 11:40:51;;;;;;;7.50;3.88;;;19.20;48.90;;;;;;5055957;28;20201;-86
2022/05/27 11:43:42;;;;;;;12.55;3.63;;;19.30;49.50;;;;;;5018267;28;20262;-87
2022/05/27 11:46:37;;;;;;;8.57;3.95;;;19.30;49.30;;;;;;5039781;28;20180;-86
2022/05/27 11:49:08;;;;;;;5.60;3.60;;;19.30;48.50;;;;;;5041415;28;20212;-86
2022/05/27 11:51:58;;;;;;;7.53;3.37;;;19.40;47.10;;;;;;5038181;28;20268;-87
2022/05/27 11:54:48;;;;;;;11.30;3.95;;;19.10;47.10;;;;;;5037445;28;20908;-86
2022/05/27 11:57:46;;;;;;;9.65;4.72;;;19.00;48.00;;;;;;5038327;28;20169;-86
2022/05/27 12:00:18;;;;;;;8.75;4.38;;;19.00;47.70;;;;;;5038052;28;20177;-86
2022/05/27 12:03:10;;;;;;;8.00;3.33;;;19.00;48.90;;;;;;5037666;28;20173;-88
2022/05/27 12:05:49;;;;;;;9.55;3.97;;;19.00;47.80;;;;;;5037630;28;20558;-88
2022/05/27 12:08:42;;;;;;;12.30;3.55;;;18.80;47.20;;;;;;5040953;28;20239;-88
2022/05/27 12:11:44;;;;;;;9.13;4.03;;;18.90;48.80;;;;;;5056484;28;20223;-87
2022/05/27 12:14:23;;;;;;;14.43;3.75;;;18.70;47.90;;;;;;5042930;28;20176;-88
2022/05/27 12:16:50;;;;;;;8.57;3.08;;;18.70;49.20;;;;;;5051592;28;20263;-88
2022/05/27 12:19:30;;;;;;;13.48;3.83;;;18.80;47.90;;;;;;5072671;28;20192;-87
2022/05/27 12:22:12;;;;;;;12.20;3.88;;;18.80;47.50;;;;;;5068610;28;20200;-87
2022/05/27 12:24:43;;;;;;;10.07;3.80;;;18.70;47.30;;;;;;5043072;28;20180;-87
2022/05/27 12:27:12;;;;;;;7.78;3.17;;;18.60;47.30;;;;;;5042701;28;20200;-87
2022/05/27 12:29:40;;;;;;;13.80;4.28;;;18.50;46.90;;;;;;5061025;28;20575;-88
2022/05/27 12:32:11;;;;;;;10.85;3.70;;;18.50;47.60;;;;;;5070980;28;20165;-87
2022/05/27 12:34:43;;;;;;;15.20;3.22;;;18.60;47.60;;;;;;5049815;28;20218;-88
2022/05/27 12:37:12;;;;;;;12.80;3.53;;;18.60;47.40;;;;;;5043276;28;20653;-88
2022/05/27 12:39:39;;;;;;;14.88;3.95;;;18.50;47.20;;;;;;5042126;28;20173;-88
2022/05/27 12:42:32;;;;;;;9.40;3.70;;;18.40;47.50;;;;;;5041822;28;20272;-89
2022/05/27 12:45:21;;;;;;;5.38;2.55;;;18.40;47.20;;;;;;5048887;28;20174;-90
2022/05/27 12:47:53;;;;;;;10.25;3.50;;;18.50;47.80;;;;;;5071880;28;20236;-90
2022/05/27 12:50:29;;;;;;;6.22;3.33;;;18.60;46.90;;;;;;5043712;28;20213;-90
2022/05/27 12:53:18;;;;;;;7.63;2.75;;;18.70;46.60;;;;;;5042039;28;20597;-90
2022/05/27 13:02:21;;;;;;;10.43;3.20;;;18.90;46.70;;;;;;5060959;28;20152;-90
2022/05/27 13:04:49;;;;;;;9.40;2.88;;;19.10;46.60;;;;;;5047011;28;20192;-89
2022/05/27 13:07:32;;;;;;;11.05;3.63;;;19.00;46.20;;;;;;5063783;28;20192;-88
2022/05/27 13:10:18;;;;;;;8.15;3.28;;;18.90;45.40;;;;;;5060203;28;20200;-89
2022/05/27 13:12:56;;;;;;;10.25;3.58;;;18.60;45.70;;;;;;5041675;28;20184;-89
2022/05/27 13:15:35;;;;;;;15.68;3.80;;;18.50;46.30;;;;;;5046159;28;20263;-89
2022/05/27 13:18:13;;;;;;;11.00;3.15;;;18.40;46.20;;;;;;5045400;28;20576;-89
2022/05/27 13:20:58;;;;;;;10.80;3.97;;;18.30;46.50;;;;;;5061108;28;20724;-89
2022/05/27 13:23:30;;;;;;;7.25;3.40;;;18.30;46.90;;;;;;5059655;28;20740;-89
2022/05/27 13:26:04;;;;;;;11.13;3.40;;;18.30;46.30;;;;;;5060966;28;20197;-89
2022/05/27 13:28:39;;;;;;;8.25;3.50;;;18.30;46.50;;;;;;5043104;28;20629;-89
2022/05/27 13:31:13;;;;;;;9.27;3.03;;;18.40;46.00;;;;;;5048583;28;20221;-89
2022/05/27 13:34:22;;;;;;;9.65;3.55;;;18.40;46.10;;;;;;5040605;28;20184;-90
2022/05/27 13:37:02;;;;;;;9.77;4.47;;;18.30;45.50;;;;;;5039767;28;20262;-89
2022/05/27 13:39:36;;;;;;;9.38;3.03;;;18.30;44.60;;;;;;5040476;28;20806;-90
2022/05/27 13:42:02;;;;;;;5.20;2.65;;;18.30;44.30;;;;;;5040695;28;20165;-89
2022/05/27 13:44:29;;;;;;;7.28;2.72;;;18.30;44.80;;;;;;5044675;28;20322;-89